Latest Weather Observations for Charles Point

IDD60901

Issued at 12:41 pm CST Wednesday 29 March 2017 (issued every 10 minutes, with the page automatically refreshed every 10 minutes)

About weather observations | Map of Darwin area stations | Latest observations for Darwin area | Other Formats
Station Details ID: 014031 Name: CHARLES POINT Lat: -12.39 Lon: 130.63 Height: 14.0 m
Data from the previous 72 hours. | See also: Recent months for locations in Northern Territory
Date/Time
CST
Temp
°C
App
Temp
°C
Dew
Point
°C
Rel
Hum
%
Delta-T
°C
Wind Press
QNH
hPa
Press
MSL
hPa
Rain since
9am
mm
Dir  Spd
km/h
Gust
km/h
Spd
kts
Gust
kts
29/12:30pm 31.3 35.5 25.9 73 3.9 W 15 28 8 15 1008.6 1008.5 0.0
29/12:00pm 31.6 36.0 25.7 71 4.2 W 13 24 7 13 1008.9 1008.8 0.0
29/11:30am 31.3 35.7 25.6 71 4.1 W 13 26 7 14 1009.3 1009.2 0.0
29/11:00am 31.0 35.4 25.6 73 3.8 W 13 20 7 11 1009.7 1009.6 0.0
29/10:30am 31.3 35.7 25.6 71 4.0 W 13 30 7 16 1009.7 1009.6 0.0
29/10:00am 31.1 35.7 25.4 71 4.0 W 11 28 6 15 1009.7 1009.6 0.0
29/09:30am 30.6 34.7 25.2 73 3.8 W 13 24 7 13 1009.5 1009.4 0.0
29/09:00am 30.4 34.8 25.0 73 3.8 W 11 19 6 10 1009.6 1009.5 0.0
29/08:30am 30.0 34.3 24.9 74 3.6 W 11 20 6 11 1009.8 1009.7 0.0
29/08:00am 29.3 33.7 24.4 75 3.4 W 9 17 5 9 1009.4 1009.3 0.0
29/07:30am 28.6 33.6 24.8 80 2.7 W 7 17 4 9 1009.0 1008.9 0.0
29/07:00am 28.3 33.1 24.5 80 2.6 W 7 13 4 7 1008.7 1008.6 0.0
29/06:30am 28.5 33.1 24.7 80 2.7 W 9 19 5 10 1008.5 1008.4 0.0
29/06:00am 28.5 33.6 24.9 81 2.5 W 7 15 4 8 1008.3 1008.1 0.0
29/05:30am 28.5 33.1 24.7 80 2.7 W 9 20 5 11 1008.3 1008.1 0.0
29/05:00am 28.6 33.3 25.0 81 2.5 W 9 19 5 10 1008.3 1008.1 0.0
29/04:30am 28.6 33.0 25.0 81 2.5 W 11 17 6 9 1008.3 1008.1 0.0
29/04:00am 28.6 33.3 25.0 81 2.5 W 9 20 5 11 1008.0 1007.8 0.0
29/03:30am 28.5 32.9 25.1 82 2.4 W 11 19 6 10 1007.9 1007.7 0.0
29/03:00am 28.5 33.8 25.3 83 2.3 W 7 17 4 9 1008.1 1007.9 0.0
29/02:30am 28.5 33.8 25.3 83 2.3 W 7 17 4 9 1008.2 1008.0 0.0
29/02:00am 28.4 33.7 25.2 83 2.2 W 7 15 4 8 1008.1 1007.9 0.0
29/01:30am 28.6 33.7 25.6 84 2.1 W 9 19 5 10 1008.3 1008.1 0.0
29/01:00am 28.6 33.6 25.4 83 2.3 W 9 15 5 8 1008.3 1008.1 0.0
29/12:30am 28.5 32.8 25.5 84 2.1 W 13 22 7 12 1008.4 1008.3 0.0
29/12:00am 28.5 33.8 25.9 86 1.8 W 9 17 5 9 1008.6 1008.5 0.0
 
Date/Time
CST
Temp
°C
App
Temp
°C
Dew
Point
°C
Rel
Hum
%
Delta-T
°C
Wind Press
QNH
hPa
Press
MSL
hPa
Rain since
9am
mm
Dir  Spd
km/h
Gust
km/h
Spd
kts
Gust
kts
28/11:30pm 28.5 34.1 25.7 85 2.0 W 7 17 4 9 1008.5 1008.4 0.0
28/11:00pm 28.3 33.7 25.5 85 2.0 W 7 17 4 9 1008.6 1008.5 0.0
28/10:30pm 28.3 33.9 25.5 85 2.0 WSW 6 11 3 6 1008.9 1008.8 0.0
28/10:00pm 28.4 34.0 25.4 84 2.1 WSW 6 11 3 6 1009.3 1009.2 0.0
28/09:30pm 28.5 34.0 25.3 83 2.3 WSW 6 11 3 6 1009.2 1009.1 0.0
28/09:00pm 28.6 34.3 25.6 84 2.1 SW 6 11 3 6 1009.0 1008.9 0.0
28/08:30pm 28.6 34.2 25.4 83 2.3 SW 6 9 3 5 1008.6 1008.5 0.0
28/08:00pm 28.8 34.2 25.4 82 2.4 WSW 7 15 4 8 1008.1 1007.9 0.0
28/07:30pm 29.1 34.7 25.7 82 2.4 WSW 7 15 4 8 1007.4 1007.2 0.0
28/07:00pm 29.0 34.4 25.4 81 2.5 WSW 7 13 4 7 1006.7 1006.5 0.0
28/06:30pm 29.7 34.3 25.4 78 3.0 W 11 19 6 10 1006.5 1006.3 0.0
28/06:00pm 30.4 35.7 25.9 77 3.2 W 9 17 5 9 1006.5 1006.3 0.0
28/05:30pm 31.1 36.6 26.1 75 3.6 W 9 17 5 9 1006.4 1006.2 0.0
28/05:00pm 31.3 36.2 25.9 73 3.8 WSW 11 19 6 10 1006.3 1006.1 0.0
28/04:30pm 31.8 37.1 26.4 73 3.9 WSW 11 20 6 11 1006.6 1006.4 0.0
28/04:00pm 31.5 36.2 25.6 71 4.2 W 11 20 6 11 1006.9 1006.7 0.0
28/03:30pm 31.8 36.4 25.9 71 4.2 W 13 32 7 17 1007.1 1006.9 0.0
28/03:00pm 32.1 36.9 26.2 71 4.2 W 13 24 7 13 1007.6 1007.4 0.0
28/02:30pm 31.8 36.9 26.1 72 4.1 W 11 22 6 12 1007.6 1007.4 0.0
28/02:00pm 31.6 35.7 25.7 71 4.2 W 15 28 8 15 1008.0 1007.8 0.0
28/01:30pm 32.1 36.7 25.9 70 4.4 W 13 22 7 12 1008.5 1008.4 0.0
28/01:00pm 31.8 36.2 25.6 69 4.4 W 13 28 7 15 1008.9 1008.8 0.0
28/12:30pm 31.8 36.0 25.4 69 4.5 W 13 20 7 11 1009.4 1009.3 0.0
28/12:00pm 31.7 35.6 25.5 69 4.4 W 15 26 8 14 1010.1 1010.0 0.0
28/11:30am 31.6 35.0 25.2 69 4.5 W 17 30 9 16 1010.5 1010.4 0.0
28/11:00am 31.6 35.3 25.7 71 4.2 WNW 17 28 9 15 1010.8 1010.7 0.0
28/10:30am 31.3 35.9 25.4 71 4.2 W 11 20 6 11 1010.9 1010.8 0.0
28/10:00am 30.8 34.5 25.2 72 4.0 WNW 15 30 8 16 1010.9 1010.8 0.0
28/09:30am 30.5 35.3 25.1 73 3.8 W 9 20 5 11 1010.8 1010.7 0.0
28/09:00am 29.6 34.2 25.4 78 3.0 W 11 19 6 10 1010.7 1010.6 7.2
28/08:30am 29.7 33.8 25.2 77 3.2 W 13 22 7 12 1010.4 1010.3 7.2
28/08:00am 29.0 31.3 25.0 79 2.8 WNW 22 32 12 17 1010.0 1009.9 7.2
28/07:30am 28.4 31.1 24.2 78 2.9 W 17 28 9 15 1009.8 1009.7 7.2
28/07:00am 28.7 32.9 25.3 82 2.4 W 13 22 7 12 1009.5 1009.4 7.2
28/06:30am 28.4 32.3 24.8 81 2.5 W 13 20 7 11 1009.4 1009.3 7.2
28/06:00am 28.5 32.6 24.5 79 2.8 W 11 19 6 10 1009.3 1009.2 7.2
28/05:30am 28.4 32.4 24.4 79 2.8 W 11 19 6 10 1009.2 1009.1 7.2
28/05:00am 28.6 33.0 25.0 81 2.5 W 11 19 6 10 1009.1 1009.0 7.2
28/04:30am 28.5 31.8 24.5 79 2.8 W 15 28 8 15 1008.8 1008.7 7.2
28/04:00am 28.5 31.2 24.7 80 2.7 WNW 19 28 10 15 1008.7 1008.6 7.2
28/03:30am 28.2 31.8 24.4 80 2.6 WNW 13 22 7 12 1008.9 1008.8 7.2
28/03:00am 28.1 32.5 24.5 81 2.5 W 9 15 5 8 1008.7 1008.6 7.2
28/02:30am 28.1 32.4 24.3 80 2.6 W 9 17 5 9 1008.6 1008.5 7.2
28/02:00am 28.1 31.0 24.5 81 2.5 WNW 17 24 9 13 1008.7 1008.6 7.2
28/01:30am 28.2 32.3 24.6 81 2.5 W 11 17 6 9 1008.7 1008.6 7.2
28/01:00am 28.2 32.4 24.8 82 2.4 WNW 11 19 6 10 1009.0 1008.9 7.2
28/12:30am 28.1 31.7 24.3 80 2.6 WNW 13 20 7 11 1009.1 1009.0 7.2
28/12:00am 27.8 32.3 24.6 83 2.2 WNW 9 13 5 7 1009.7 1009.6 7.2
 
Date/Time
CST
Temp
°C
App
Temp
°C
Dew
Point
°C
Rel
Hum
%
Delta-T
°C
Wind Press
QNH
hPa
Press
MSL
hPa
Rain since
9am
mm
Dir  Spd
km/h
Gust
km/h
Spd
kts
Gust
kts
27/11:30pm 27.6 32.7 24.6 84 2.1 WNW 6 11 3 6 1010.3 1010.2 7.2
27/11:00pm 27.9 32.9 24.5 82 2.4 W 6 13 3 7 1010.7 1010.6 7.2
27/10:30pm 28.2 32.7 24.6 81 2.5 WNW 9 15 5 8 1010.9 1010.8 7.2
27/10:00pm 28.1 33.1 24.5 81 2.5 WNW 6 11 3 6 1010.8 1010.7 7.2
27/09:30pm 27.9 32.9 24.5 82 2.4 W 6 9 3 5 1010.2 1010.1 7.2
27/09:00pm 28.1 33.6 24.7 82 2.4 WSW 4 7 2 4 1009.9 1009.8 7.2
27/08:30pm 28.4 33.3 24.6 80 2.7 W 7 15 4 8 1009.0 1008.9 7.2
27/08:00pm 28.3 33.1 24.5 80 2.6 W 7 17 4 9 1008.4 1008.3 7.2
27/07:30pm 28.3 33.4 24.7 81 2.5 W 6 11 3 6 1008.2 1008.0 7.2
27/07:00pm 28.4 33.5 24.6 80 2.6 WNW 6 13 3 7 1007.7 1007.5 7.2
27/06:30pm 29.0 33.9 24.6 77 3.1 W 7 15 4 8 1007.8 1007.6 7.2
27/06:00pm 29.3 34.3 24.8 77 3.2 W 7 13 4 7 1007.8 1007.6 7.2
27/05:30pm 30.1 35.7 25.4 76 3.3 WSW 6 9 3 5 1008.0 1007.8 7.2
27/05:00pm 29.5 34.8 25.0 77 3.2 WSW 6 11 3 6 1007.9 1007.7 7.2
27/04:30pm 29.6 34.9 24.9 76 3.3 SW 6 9 3 5 1007.9 1007.7 7.2
27/04:00pm 29.3 33.7 24.4 75 3.4 W 9 17 5 9 1008.1 1007.9 7.2
27/03:30pm 30.3 36.0 25.6 76 3.3 W 6 13 3 7 1008.2 1008.0 7.2
27/03:00pm 30.4 35.1 25.5 75 3.5 W 11 20 6 11 1008.5 1008.4 7.2
27/02:30pm 30.2 34.9 25.5 76 3.3 WNW 11 17 6 9 1008.4 1008.3 7.2
27/02:00pm 31.0 35.8 25.1 71 4.2 W 9 17 5 9 1008.8 1008.7 7.2
27/01:30pm 30.4 34.9 25.2 74 3.7 W 11 19 6 10 1009.2 1009.1 7.2
27/01:00pm 31.1 35.5 25.7 73 3.8 WNW 13 20 7 11 1009.5 1009.4 7.2
27/12:30pm 30.3 34.9 25.4 75 3.5 W 11 20 6 11 1010.2 1010.1 7.2
27/12:00pm 29.5 33.2 24.6 75 3.4 W 13 24 7 13 1010.4 1010.3 7.2
27/11:30am 30.4 34.5 26.3 79 2.9 WNW 17 24 9 13 1010.7 1010.6 7.2
27/11:00am 28.4 33.4 26.0 87 1.7 WNW 11 19 6 10 1011.0 1010.9 7.0
27/10:30am 27.0 30.5 24.8 88 1.5 WNW 15 20 8 11 1011.1 1011.0 7.0
27/10:00am 27.4 33.4 24.8 86 1.8 WNW 2 9 1 5 1011.4 1011.3 5.2
27/09:30am 29.4 35.0 24.9 77 3.2 WSW 4 9 2 5 1011.1 1011.0 0.0
27/09:00am 29.8 33.5 25.1 76 3.3 WNW 15 19 8 10 1011.0 1010.9 0.8
27/08:30am 29.7 34.3 24.8 75 3.4 W 9 17 5 9 1010.5 1010.4 0.8
27/08:00am 28.7 33.6 24.7 79 2.8 W 7 15 4 8 1010.5 1010.4 0.8
27/07:30am 28.3 32.6 24.9 82 2.4 WNW 11 19 6 10 1010.4 1010.3 0.8
27/07:00am 28.2 32.7 24.6 81 2.5 WNW 9 17 5 9 1010.2 1010.1 0.8
27/06:30am 28.4 31.9 24.8 81 2.5 WNW 15 22 8 12 1010.0 1009.9 0.8
27/06:00am 28.4 31.1 24.8 81 2.5 WNW 19 26 10 14 1009.8 1009.7 0.8
27/05:30am 28.4 31.1 25.0 82 2.4 WNW 20 26 11 14 1009.7 1009.6 0.8
27/05:00am 28.1 31.4 25.1 84 2.1 WNW 17 22 9 12 1009.6 1009.5 0.8
27/04:30am 27.8 30.7 24.4 82 2.4 WNW 17 22 9 12 1009.2 1009.1 0.8
27/04:00am 27.9 31.1 24.9 84 2.1 WNW 17 22 9 12 1009.2 1009.1 0.8
27/03:30am 28.2 31.6 25.2 84 2.1 WNW 17 26 9 14 1009.3 1009.2 0.8
27/03:00am 27.6 30.2 24.6 84 2.1 WNW 19 24 10 13 1009.5 1009.4 0.8
27/02:30am 28.5 31.4 24.5 79 2.8 WNW 17 22 9 12 1009.7 1009.6 0.0
27/02:00am 28.5 31.3 24.3 78 2.9 WNW 17 22 9 12 1009.9 1009.8 0.0
27/01:30am 28.5 31.8 25.1 82 2.4 NW 17 24 9 13 1010.1 1010.0 0.0
27/01:00am 28.2 30.6 24.6 81 2.5 NW 20 26 11 14 1010.2 1010.1 0.0
27/12:30am 28.4 32.6 25.4 84 2.1 NW 13 19 7 10 1010.5 1010.4 0.0
27/12:00am 28.2 32.2 25.0 83 2.2 NW 13 19 7 10 1010.9 1010.8 0.0
 
Date/Time
CST
Temp
°C
App
Temp
°C
Dew
Point
°C
Rel
Hum
%
Delta-T
°C
Wind Press
QNH
hPa
Press
MSL
hPa
Rain since
9am
mm
Dir  Spd
km/h
Gust
km/h
Spd
kts
Gust
kts
26/11:30pm 28.4 32.5 25.2 83 2.2 NW 13 19 7 10 1011.0 1010.9 0.0
26/11:00pm 28.5 31.7 24.9 81 2.5 NW 17 22 9 12 1011.0 1010.9 0.0
26/10:30pm 28.5 31.7 24.3 78 2.9 NW 15 20 8 11 1011.0 1010.9 0.0
26/10:00pm 28.6 31.1 24.4 78 2.9 NW 19 26 10 14 1010.8 1010.7 0.0
26/09:30pm 28.9 31.5 24.9 79 2.8 NNW 20 28 11 15 1010.1 1010.0 0.0
26/09:00pm 28.7 29.6 23.4 73 3.6 NNW 24 33 13 18 1009.6 1009.5 0.0
26/08:30pm 29.1 31.6 24.7 77 3.1 NW 20 28 11 15 1009.1 1009.0 0.0
26/08:00pm 29.1 30.6 24.9 78 2.9 NNW 26 32 14 17 1008.8 1008.7 0.0
26/07:30pm 29.0 31.4 25.2 80 2.7 NNW 22 26 12 14 1008.5 1008.4 0.0
26/07:00pm 29.1 32.6 24.9 78 2.9 NW 15 20 8 11 1008.2 1008.0 0.0
26/06:30pm 29.1 32.6 24.2 75 3.4 NW 13 20 7 11 1007.7 1007.5 0.0
26/06:00pm 29.1 33.4 24.9 78 2.9 NW 11 15 6 8 1007.1 1006.9 0.0
26/05:30pm 29.8 34.0 24.7 74 3.6 WNW 11 15 6 8 1006.8 1006.6 0.0
26/05:00pm 30.0 34.1 24.6 73 3.8 NW 11 17 6 9 1006.9 1006.7 0.0
26/04:30pm 30.2 34.7 24.6 72 3.9 NW 9 15 5 8 1006.5 1006.3 0.0
26/04:00pm 30.1 34.2 24.5 72 3.9 NW 11 17 6 9 1006.6 1006.4 0.0
26/03:30pm 30.6 35.0 24.5 70 4.3 NNW 9 15 5 8 1006.4 1006.2 0.0
26/03:00pm 30.4 34.8 24.5 70 4.1 NNW 9 13 5 7 1006.5 1006.3 0.0
26/02:30pm 30.5 35.4 25.3 74 3.7 NNW 9 15 5 8 1006.7 1006.5 0.0
26/02:00pm 30.3 34.9 25.4 75 3.5 NNW 11 17 6 9 1007.2 1007.0 0.0
26/01:30pm 29.7 34.1 25.0 76 3.3 N 11 15 6 8 1007.7 1007.5 0.0
26/01:00pm 30.1 34.6 25.2 75 3.5 NNW 11 17 6 9 1007.9 1007.7 0.0

Latest Capital City Observations: Canberra | Sydney | Melbourne | Brisbane | Adelaide | Perth | Hobart | Darwin

Other Formats:

Comma delimited format used in spreadsheet applications
http://www.bom.gov.au/fwo/IDD60901/IDD60901.99510.axf

JavaScript Object Notation format (JSON) in row-major order
http://www.bom.gov.au/fwo/IDD60901/IDD60901.99510.json